createdAt,value
2022-10-04T00:00:16.681Z,100502.98
2022-10-04T00:01:18.960Z,100502.98
2022-10-04T00:02:21.867Z,100503.83
2022-10-04T00:03:23.691Z,100500.36
2022-10-04T00:04:25.570Z,100502.08
2022-10-04T00:05:27.413Z,100497.75
2022-10-04T00:06:29.649Z,100498.60
2022-10-04T00:07:31.482Z,100496.84
2022-10-04T00:08:33.325Z,100504.69
2022-10-04T00:09:35.201Z,100507.30
2022-10-04T00:10:37.129Z,100502.08
2022-10-04T00:11:39.069Z,100502.97
2022-10-04T00:12:41.101Z,100503.82
2022-10-04T00:13:43.205Z,100508.20
2022-10-04T00:14:45.071Z,100505.58
2022-10-04T00:15:47.056Z,100507.30
2022-10-04T00:16:48.947Z,100505.59
2022-10-04T00:17:50.784Z,100506.45
2022-10-04T00:18:52.634Z,100502.98
2022-10-04T00:19:54.479Z,100498.61
2022-10-04T00:20:56.305Z,100497.75
2022-10-04T00:21:58.144Z,100501.22
2022-10-04T00:22:59.973Z,100501.22
2022-10-04T00:24:01.813Z,100506.45
2022-10-04T00:25:03.672Z,100504.69
2022-10-04T00:26:06.021Z,100509.06
2022-10-04T00:27:07.857Z,100501.20
2022-10-04T00:28:09.753Z,100493.39
2022-10-04T00:29:11.647Z,100504.68
2022-10-04T00:30:13.954Z,100500.34
2022-10-04T00:31:15.843Z,100499.45
2022-10-04T00:32:17.703Z,100502.95
2022-10-04T00:33:19.528Z,100511.66
2022-10-04T00:34:21.371Z,100501.20
2022-10-04T00:35:23.257Z,100509.90
2022-10-04T00:36:25.294Z,100508.17
2022-10-04T00:37:27.234Z,100508.17
2022-10-04T00:38:29.073Z,100505.56
2022-10-04T00:39:30.908Z,100506.42
2022-10-04T00:40:32.906Z,100505.56
2022-10-04T00:41:34.742Z,100503.80
2022-10-04T00:42:36.565Z,100503.81
2022-10-04T00:43:38.388Z,100503.80
2022-10-04T00:44:40.312Z,100508.17
2022-10-04T00:45:42.187Z,100503.81
2022-10-04T00:46:44.137Z,100502.05
2022-10-04T00:47:45.976Z,100501.20
2022-10-04T00:48:47.815Z,100501.20
2022-10-04T00:49:49.662Z,100498.59
2022-10-04T00:50:51.734Z,100494.22
2022-10-04T00:51:53.554Z,100496.84
2022-10-04T00:52:55.400Z,100496.84
2022-10-04T00:53:57.241Z,100496.84
2022-10-04T00:54:59.066Z,100502.08
2022-10-04T00:56:00.940Z,100499.46
2022-10-04T00:57:02.796Z,100501.22
2022-10-04T00:58:04.626Z,100503.83
2022-10-04T00:59:06.455Z,100500.38
2022-10-04T01:00:08.477Z,100502.09
2022-10-04T01:01:11.186Z,100500.34
2022-10-04T01:02:13.206Z,100496.88
2022-10-04T01:03:15.033Z,100500.34
2022-10-04T01:04:16.883Z,100499.48
2022-10-04T01:05:18.709Z,100502.95
2022-10-04T01:06:20.573Z,100502.11
2022-10-04T01:07:22.457Z,100512.56
2022-10-04T01:08:24.300Z,100512.56
2022-10-04T01:09:26.113Z,100513.43
2022-10-04T01:10:28.047Z,100513.44
2022-10-04T01:11:29.899Z,100512.59
2022-10-04T01:12:31.733Z,100514.34
2022-10-04T01:13:33.705Z,100505.63
2022-10-04T01:14:35.511Z,100505.63
2022-10-04T01:15:37.455Z,100512.63
2022-10-04T01:16:39.588Z,100508.27
2022-10-04T01:17:41.407Z,100517.86
2022-10-04T01:18:43.230Z,100513.50
2022-10-04T01:19:45.081Z,100512.64
2022-10-04T01:20:47.016Z,100517.02
2022-10-04T01:21:48.890Z,100513.52
2022-10-04T01:22:50.713Z,100514.41
2022-10-04T01:23:52.566Z,100518.75
2022-10-04T01:24:54.402Z,100521.38
2022-10-04T01:25:56.252Z,100510.06
2022-10-04T01:26:58.204Z,100516.14
2022-10-04T01:28:00.056Z,100516.15
2022-10-04T01:29:01.926Z,100513.54
2022-10-04T01:30:03.827Z,100521.38
2022-10-04T01:31:05.688Z,100524.86
2022-10-04T01:32:07.523Z,100524.86
2022-10-04T01:33:09.327Z,100527.50
2022-10-04T01:34:11.131Z,100526.61
2022-10-04T01:35:12.931Z,100524.88
2022-10-04T01:36:14.960Z,100527.50
2022-10-04T01:37:16.788Z,100524.88
2022-10-04T01:38:18.580Z,100530.97
2022-10-04T01:39:20.377Z,100529.22
2022-10-04T01:40:22.206Z,100529.22
2022-10-04T01:41:24.011Z,100531.83
2022-10-04T01:42:25.834Z,100522.24
2022-10-04T01:43:27.630Z,100526.61
2022-10-04T01:44:29.437Z,100530.09
2022-10-04T01:45:31.265Z,100526.62
2022-10-04T01:46:33.340Z,100530.09
2022-10-04T01:47:35.234Z,100520.54
2022-10-04T01:48:37.067Z,100524.87
2022-10-04T01:49:38.848Z,100516.18
2022-10-04T01:50:40.748Z,100522.27
2022-10-04T01:51:42.799Z,100513.58
2022-10-04T01:52:44.805Z,100524.87
2022-10-04T01:53:46.614Z,100524.02
2022-10-04T01:54:48.414Z,100519.66
2022-10-04T01:55:50.215Z,100521.40
2022-10-04T01:56:52.032Z,100526.62
2022-10-04T01:57:53.869Z,100520.54
2022-10-04T01:58:55.683Z,100530.09
2022-10-04T01:59:57.493Z,100527.49
2022-10-04T02:00:59.344Z,100525.77
2022-10-04T02:02:01.360Z,100531.86
2022-10-04T02:03:05.000Z,100532.72
2022-10-04T02:04:06.991Z,100524.03
2022-10-04T02:05:08.892Z,100529.25
2022-10-04T02:06:11.524Z,100531.02
2022-10-04T02:07:13.321Z,100526.65
2022-10-04T02:08:15.174Z,100527.51
2022-10-04T02:09:16.984Z,100535.34
2022-10-04T02:10:18.996Z,100530.12
2022-10-04T02:11:20.818Z,100533.62
2022-10-04T02:12:22.610Z,100537.95
2022-10-04T02:13:24.483Z,100532.73
2022-10-04T02:14:26.276Z,100530.12
2022-10-04T02:15:28.077Z,100541.47
2022-10-04T02:16:30.020Z,100537.11
2022-10-04T02:17:32.024Z,100531.89
2022-10-04T02:18:33.856Z,100541.48
2022-10-04T02:19:35.680Z,100544.09
2022-10-04T02:20:37.481Z,100547.57
2022-10-04T02:21:39.828Z,100539.73
2022-10-04T02:22:41.790Z,100549.32
2022-10-04T02:23:43.649Z,100542.34
2022-10-04T02:24:45.466Z,100542.34
2022-10-04T02:25:47.282Z,100539.73
2022-10-04T02:26:49.090Z,100544.09
2022-10-04T02:27:50.953Z,100544.09
2022-10-04T02:28:52.850Z,100544.09
2022-10-04T02:29:54.667Z,100544.96
2022-10-04T02:30:56.613Z,100544.96
2022-10-04T02:31:58.372Z,100544.96
2022-10-04T02:33:00.208Z,100550.19
2022-10-04T02:34:02.070Z,100554.55
2022-10-04T02:35:03.840Z,100547.57
2022-10-04T02:36:05.739Z,100551.95
2022-10-04T02:37:07.546Z,100550.19
2022-10-04T02:38:09.346Z,100557.17
2022-10-04T02:39:11.192Z,100549.33
2022-10-04T02:40:13.914Z,100547.58
2022-10-04T02:41:16.211Z,100538.90
2022-10-04T02:42:17.916Z,100549.33
2022-10-04T02:43:19.723Z,100552.80
2022-10-04T02:44:21.553Z,100545.83
2022-10-04T02:45:23.385Z,100548.44
2022-10-04T02:46:25.646Z,100551.05
2022-10-04T02:47:27.593Z,100560.65
2022-10-04T02:48:29.480Z,100559.80
2022-10-04T02:49:31.328Z,100558.05
2022-10-04T02:50:33.042Z,100553.68
2022-10-04T02:51:34.833Z,100554.57
2022-10-04T02:52:36.641Z,100558.91
2022-10-04T02:53:38.447Z,100563.27
2022-10-04T02:54:40.281Z,100560.66
2022-10-04T02:55:42.103Z,100552.82
2022-10-04T02:56:43.998Z,100561.52
2022-10-04T02:57:45.821Z,100556.30
2022-10-04T02:58:47.628Z,100555.45
2022-10-04T02:59:49.475Z,100564.14
2022-10-04T03:00:51.413Z,100562.39
2022-10-04T03:01:53.334Z,100559.78
2022-10-04T03:02:55.223Z,100559.78
2022-10-04T03:03:57.505Z,100559.78
2022-10-04T03:04:59.351Z,100560.68
2022-10-04T03:06:01.160Z,100557.17
2022-10-04T03:07:02.964Z,100565.02
2022-10-04T03:08:04.767Z,100560.69
2022-10-04T03:09:06.790Z,100561.55
2022-10-04T03:10:08.833Z,100563.30
2022-10-04T03:11:10.900Z,100566.78
2022-10-04T03:12:12.708Z,100568.53
2022-10-04T03:13:14.408Z,100570.25
2022-10-04T03:14:16.217Z,100570.25
2022-10-04T03:15:18.074Z,100565.03
2022-10-04T03:16:19.940Z,100572.02
2022-10-04T03:17:21.667Z,100574.62
2022-10-04T03:18:23.500Z,100578.98
2022-10-04T03:19:25.386Z,100578.09
2022-10-04T03:20:27.434Z,100578.09
2022-10-04T03:21:29.240Z,100574.63
2022-10-04T03:22:31.057Z,100573.77
2022-10-04T03:23:32.864Z,100572.88
2022-10-04T03:24:34.677Z,100574.64
2022-10-04T03:25:36.542Z,100570.27
2022-10-04T03:26:38.734Z,100579.00
2022-10-04T03:27:40.544Z,100580.72
2022-10-04T03:28:42.581Z,100586.84
2022-10-04T03:29:44.381Z,100579.86
2022-10-04T03:30:46.223Z,100579.01
2022-10-04T03:31:48.121Z,100580.73
2022-10-04T03:32:49.937Z,100585.95
2022-10-04T03:33:51.736Z,100592.93
2022-10-04T03:34:53.562Z,100588.56
2022-10-04T03:35:55.412Z,100587.71
2022-10-04T03:36:57.221Z,100588.56
2022-10-04T03:37:59.035Z,100592.07
2022-10-04T03:39:00.831Z,100593.80
2022-10-04T03:40:02.653Z,100592.07
2022-10-04T03:41:04.553Z,100583.34
2022-10-04T03:42:06.369Z,100594.69
2022-10-04T03:43:08.190Z,100593.80
2022-10-04T03:44:10.023Z,100605.99
2022-10-04T03:45:11.865Z,100592.93
2022-10-04T03:46:13.898Z,100599.02
2022-10-04T03:47:15.684Z,100599.91
2022-10-04T03:48:17.529Z,100602.52
2022-10-04T03:49:19.368Z,100600.77
2022-10-04T03:50:21.267Z,100605.13
2022-10-04T03:51:23.144Z,100603.37
2022-10-04T03:52:25.022Z,100601.62
2022-10-04T03:53:26.858Z,100608.61
2022-10-04T03:54:28.681Z,100608.61
2022-10-04T03:55:30.537Z,100607.72
2022-10-04T03:56:32.435Z,100609.47
2022-10-04T03:57:34.253Z,100609.47
2022-10-04T03:58:36.072Z,100614.69
2022-10-04T03:59:37.952Z,100607.72
2022-10-04T04:00:39.758Z,100613.83
2022-10-04T04:01:41.889Z,100612.94
2022-10-04T04:02:46.265Z,100616.45
2022-10-04T04:03:47.542Z,100617.31
2022-10-04T04:04:49.384Z,100612.95
2022-10-04T04:05:51.249Z,100608.62
2022-10-04T04:06:53.124Z,100621.67
2022-10-04T04:07:54.970Z,100621.67
2022-10-04T04:08:56.804Z,100626.01
2022-10-04T04:09:58.641Z,100629.52
2022-10-04T04:11:00.471Z,100628.62
2022-10-04T04:12:02.322Z,100629.52
2022-10-04T04:13:04.170Z,100632.12
2022-10-04T04:14:06.003Z,100632.12
2022-10-04T04:15:07.826Z,100626.90
2022-10-04T04:16:10.156Z,100624.30
2022-10-04T04:17:12.053Z,100621.68
2022-10-04T04:18:13.885Z,100626.01
2022-10-04T04:19:15.722Z,100624.30
2022-10-04T04:20:17.800Z,100631.23
2022-10-04T04:21:19.653Z,100631.23
2022-10-04T04:22:21.511Z,100628.62
2022-10-04T04:23:23.406Z,100627.77
2022-10-04T04:24:25.173Z,100626.91
2022-10-04T04:25:26.978Z,100626.91
2022-10-04T04:26:28.803Z,100628.62
2022-10-04T04:27:30.672Z,100632.12
2022-10-04T04:28:32.619Z,100637.34
2022-10-04T04:29:34.570Z,100634.73
2022-10-04T04:30:36.382Z,100634.73
2022-10-04T04:31:38.274Z,100639.95
2022-10-04T04:32:40.209Z,100637.34
2022-10-04T04:33:42.014Z,100644.29
2022-10-04T04:34:43.836Z,100639.06
2022-10-04T04:35:45.685Z,100637.34
2022-10-04T04:36:47.559Z,100639.06
2022-10-04T04:37:49.414Z,100634.73
2022-10-04T04:38:51.237Z,100640.81
2022-10-04T04:39:53.077Z,100631.23
2022-10-04T04:40:55.121Z,100642.56
2022-10-04T04:41:56.958Z,100640.81
2022-10-04T04:42:58.811Z,100638.20
2022-10-04T04:44:00.644Z,100644.28
2022-10-04T04:45:02.467Z,100643.42
2022-10-04T04:46:26.179Z,100643.42
2022-10-04T04:47:07.939Z,100648.64
2022-10-04T04:48:09.807Z,100643.42
2022-10-04T04:49:11.654Z,100644.31
2022-10-04T04:50:13.582Z,100650.39
2022-10-04T04:51:15.517Z,100644.30
2022-10-04T04:52:17.364Z,100644.30
2022-10-04T04:53:19.234Z,100651.24
2022-10-04T04:54:21.078Z,100655.61
2022-10-04T04:55:22.879Z,100656.47
2022-10-04T04:56:24.718Z,100658.22
2022-10-04T04:57:26.550Z,100659.96
2022-10-04T04:58:28.394Z,100658.20
2022-10-04T04:59:30.250Z,100655.59
2022-10-04T05:00:32.055Z,100653.84
2022-10-04T05:01:34.025Z,100661.67
2022-10-04T05:02:35.899Z,100660.81
2022-10-04T05:03:38.373Z,100655.58
2022-10-04T05:04:40.203Z,100659.08
2022-10-04T05:05:42.056Z,100656.47
2022-10-04T05:06:43.984Z,100659.94
2022-10-04T05:07:45.838Z,100660.80
2022-10-04T05:08:47.700Z,100662.55
2022-10-04T05:09:49.505Z,100659.06
2022-10-04T05:10:51.332Z,100662.53
2022-10-04T05:11:53.161Z,100667.75
2022-10-04T05:12:55.009Z,100665.14
2022-10-04T05:13:56.868Z,100666.00
2022-10-04T05:14:58.715Z,100659.91
2022-10-04T05:16:00.574Z,100672.11
2022-10-04T05:17:02.379Z,100668.63
2022-10-04T05:18:04.205Z,100668.63
2022-10-04T05:19:06.081Z,100676.47
2022-10-04T05:20:08.228Z,100662.50
2022-10-04T05:21:10.054Z,100666.86
2022-10-04T05:22:11.888Z,100667.72
2022-10-04T05:23:14.753Z,100664.24
2022-10-04T05:24:16.633Z,100671.22
2022-10-04T05:25:18.475Z,100667.70
2022-10-04T05:26:20.817Z,100674.69
2022-10-04T05:27:22.641Z,100675.55
2022-10-04T05:28:24.565Z,100675.54
2022-10-04T05:29:26.426Z,100683.38
2022-10-04T05:30:28.263Z,100681.65
2022-10-04T05:31:30.133Z,100678.14
2022-10-04T05:32:31.891Z,100679.02
2022-10-04T05:33:34.031Z,100685.11
2022-10-04T05:34:35.891Z,100686.00
2022-10-04T05:35:37.734Z,100682.48
2022-10-04T05:36:39.672Z,100699.06
2022-10-04T05:37:41.507Z,100696.44
2022-10-04T05:38:43.363Z,100697.30
2022-10-04T05:39:45.241Z,100694.68
2022-10-04T05:40:47.094Z,100693.81
2022-10-04T05:41:48.925Z,100696.45
2022-10-04T05:42:50.761Z,100704.29
2022-10-04T05:43:52.591Z,100700.78
2022-10-04T05:44:54.468Z,100706.89
2022-10-04T05:45:56.369Z,100694.67
2022-10-04T05:46:58.164Z,100702.52
2022-10-04T05:47:59.989Z,100702.50
2022-10-04T05:49:01.801Z,100709.48
2022-10-04T05:50:03.781Z,100703.38
2022-10-04T05:51:05.633Z,100706.86
2022-10-04T05:52:07.431Z,100707.71
2022-10-04T05:53:10.609Z,100710.32
2022-10-04T05:54:13.156Z,100712.93
2022-10-04T05:55:15.017Z,100709.45
2022-10-04T05:56:16.979Z,100709.45
2022-10-04T05:57:19.068Z,100719.91
2022-10-04T05:58:20.905Z,100711.20
2022-10-04T05:59:22.774Z,100716.44
2022-10-04T06:00:24.737Z,100719.04
2022-10-04T06:01:26.640Z,100711.19
2022-10-04T06:02:28.561Z,100709.43
2022-10-04T06:03:30.615Z,100707.67
2022-10-04T06:04:33.645Z,100706.80
2022-10-04T06:05:35.899Z,100702.43
2022-10-04T06:06:38.019Z,100709.41
2022-10-04T06:07:40.940Z,100702.42
2022-10-04T06:08:42.835Z,100705.03
2022-10-04T06:09:44.743Z,100699.80
2022-10-04T06:10:46.680Z,100705.92
2022-10-04T06:11:48.506Z,100709.39
2022-10-04T06:12:50.331Z,100707.66
2022-10-04T06:13:52.130Z,100705.03
2022-10-04T06:14:53.935Z,100711.13
2022-10-04T06:15:55.792Z,100710.27
2022-10-04T06:16:57.768Z,100712.88
2022-10-04T06:17:59.591Z,100725.05
2022-10-04T06:19:02.606Z,100720.72
2022-10-04T06:20:04.500Z,100718.95
2022-10-04T06:21:06.347Z,100725.94
2022-10-04T06:22:08.172Z,100724.18
2022-10-04T06:23:09.971Z,100725.03
2022-10-04T06:24:11.789Z,100714.56
2022-10-04T06:25:13.621Z,100713.70
2022-10-04T06:26:15.717Z,100716.31
2022-10-04T06:27:17.534Z,100718.92
2022-10-04T06:28:19.407Z,100723.29
2022-10-04T06:29:21.250Z,100719.77
2022-10-04T06:30:23.060Z,100718.05
2022-10-04T06:31:24.913Z,100714.53
2022-10-04T06:32:26.732Z,100712.80
2022-10-04T06:33:28.571Z,100714.52
2022-10-04T06:34:30.376Z,100715.41
2022-10-04T06:35:32.178Z,100710.17
2022-10-04T06:36:34.150Z,100714.54
2022-10-04T06:37:35.969Z,100719.77
2022-10-04T06:38:37.827Z,100721.49
2022-10-04T06:39:39.647Z,100725.00
2022-10-04T06:40:41.755Z,100720.62
2022-10-04T06:41:43.947Z,100724.99
2022-10-04T06:42:45.909Z,100724.98
2022-10-04T06:43:47.706Z,100731.94
2022-10-04T06:44:49.513Z,100725.83
2022-10-04T06:45:51.353Z,100728.45
2022-10-04T06:46:53.165Z,100725.83
2022-10-04T06:47:54.976Z,100731.92
2022-10-04T06:48:56.776Z,100725.81
2022-10-04T06:49:58.596Z,100726.69
2022-10-04T06:51:00.502Z,100725.83
2022-10-04T06:52:02.381Z,100733.67
2022-10-04T06:53:04.185Z,100731.05
2022-10-04T06:54:05.990Z,100731.05
2022-10-04T06:55:07.800Z,100734.52
2022-10-04T06:56:10.711Z,100731.91
2022-10-04T06:57:12.559Z,100731.91
2022-10-04T06:58:14.463Z,100736.28
2022-10-04T06:59:16.258Z,100738.03
2022-10-04T07:00:18.080Z,100733.66
2022-10-04T07:01:19.926Z,100745.88
2022-10-04T07:02:21.787Z,100743.27
2022-10-04T07:03:23.647Z,100738.03
2022-10-04T07:04:25.470Z,100738.89
2022-10-04T07:05:27.274Z,100741.50
2022-10-04T07:06:29.490Z,100738.03
2022-10-04T07:07:31.231Z,100746.74
2022-10-04T07:08:33.046Z,100748.49
2022-10-04T07:09:34.888Z,100735.43
2022-10-04T07:10:36.787Z,100745.87
2022-10-04T07:11:38.633Z,100746.75
2022-10-04T07:12:42.987Z,100747.62
2022-10-04T07:13:44.845Z,100752.00
2022-10-04T07:14:46.648Z,100742.39
2022-10-04T07:15:48.438Z,100751.12
2022-10-04T07:16:50.280Z,100751.98
2022-10-04T07:17:52.143Z,100757.20
2022-10-04T07:18:53.948Z,100752.83
2022-10-04T07:19:55.758Z,100741.48
2022-10-04T07:20:57.573Z,100751.09
2022-10-04T07:21:59.369Z,100754.58
2022-10-04T07:23:01.221Z,100746.72
2022-10-04T07:24:03.046Z,100750.20
2022-10-04T07:25:04.868Z,100759.80
2022-10-04T07:26:07.078Z,100751.94
2022-10-04T07:27:08.979Z,100756.31
2022-10-04T07:28:10.940Z,100756.30
2022-10-04T07:29:12.790Z,100750.17
2022-10-04T07:30:14.719Z,100748.45
2022-10-04T07:31:16.587Z,100747.55
2022-10-04T07:32:18.451Z,100753.67
2022-10-04T07:33:20.287Z,100751.91
2022-10-04T07:34:22.113Z,100751.05
2022-10-04T07:35:23.948Z,100748.42
2022-10-04T07:36:25.878Z,100750.17
2022-10-04T07:37:27.663Z,100752.79
2022-10-04T07:38:29.536Z,100748.41
2022-10-04T07:39:31.334Z,100758.03
2022-10-04T07:40:33.159Z,100755.41
2022-10-04T07:41:34.968Z,100754.50
2022-10-04T07:42:36.845Z,100755.40
2022-10-04T07:43:38.686Z,100752.78
2022-10-04T07:44:40.511Z,100752.77
2022-10-04T07:45:42.360Z,100751.87
2022-10-04T07:46:44.115Z,100753.62
2022-10-04T07:47:45.931Z,100756.23
2022-10-04T07:48:47.766Z,100747.52
2022-10-04T07:49:49.593Z,100748.38
2022-10-04T07:50:51.502Z,100744.88
2022-10-04T07:51:53.315Z,100744.88
2022-10-04T07:52:55.111Z,100746.61
2022-10-04T07:53:56.976Z,100750.13
2022-10-04T07:54:58.804Z,100747.49
2022-10-04T07:56:00.594Z,100750.95
2022-10-04T07:57:02.427Z,100757.95
2022-10-04T07:58:04.228Z,100757.05
2022-10-04T07:59:06.072Z,100753.56
2022-10-04T08:00:08.286Z,100759.66
2022-10-04T08:01:10.180Z,100760.55
2022-10-04T08:02:12.230Z,100756.17
2022-10-04T08:03:14.236Z,100759.64
2022-10-04T08:04:16.076Z,100764.88
2022-10-04T08:05:17.915Z,100761.38
2022-10-04T08:06:19.743Z,100757.91
2022-10-04T08:07:21.560Z,100758.78
2022-10-04T08:08:23.402Z,100758.80
2022-10-04T08:09:25.270Z,100757.94
2022-10-04T08:10:27.102Z,100765.78
2022-10-04T08:11:28.945Z,100761.39
2022-10-04T08:12:30.766Z,100758.77
2022-10-04T08:13:32.615Z,100760.52
2022-10-04T08:14:34.492Z,100759.64
2022-10-04T08:15:36.409Z,100764.92
2022-10-04T08:16:38.463Z,100768.41
2022-10-04T08:17:41.566Z,100771.00
2022-10-04T08:18:43.364Z,100768.41
2022-10-04T08:19:45.256Z,100762.30
2022-10-04T08:20:47.102Z,100774.50
2022-10-04T08:21:49.241Z,100770.16
2022-10-04T08:22:51.089Z,100771.02
2022-10-04T08:23:52.949Z,100771.02
2022-10-04T08:24:54.808Z,100773.63
2022-10-04T08:25:56.688Z,100771.88
2022-10-04T08:26:58.526Z,100771.02
2022-10-04T08:28:00.372Z,100772.77
2022-10-04T08:29:02.251Z,100771.00
2022-10-04T08:30:04.131Z,100773.63
2022-10-04T08:31:06.005Z,100773.63
2022-10-04T08:32:07.789Z,100783.25
2022-10-04T08:33:09.618Z,100778.88
2022-10-04T08:34:11.469Z,100783.27
2022-10-04T08:35:13.343Z,100777.13
2022-10-04T08:36:15.188Z,100773.64
2022-10-04T08:37:17.031Z,100787.59
2022-10-04T08:38:18.878Z,100784.10
2022-10-04T08:39:20.708Z,100779.74
2022-10-04T08:40:22.579Z,100774.49
2022-10-04T08:41:24.536Z,100780.59
2022-10-04T08:42:26.360Z,100778.87
2022-10-04T08:43:28.209Z,100783.23
2022-10-04T08:44:30.154Z,100779.72
2022-10-04T08:45:32.030Z,100780.63
2022-10-04T08:46:34.123Z,100772.77
2022-10-04T08:47:36.109Z,100778.88
2022-10-04T08:48:37.949Z,100773.63
2022-10-04T08:49:39.807Z,100778.88
2022-10-04T08:50:41.671Z,100778.00
2022-10-04T08:51:43.522Z,100778.00
2022-10-04T08:52:45.359Z,100776.25
2022-10-04T08:53:47.202Z,100775.38
2022-10-04T08:54:49.033Z,100785.85
2022-10-04T08:55:51.908Z,100784.96
2022-10-04T08:56:54.171Z,100786.71
2022-10-04T08:57:55.985Z,100788.47
2022-10-04T08:58:57.837Z,100779.72
2022-10-04T08:59:59.761Z,100787.58
2022-10-04T09:01:03.495Z,100783.23
2022-10-04T09:02:05.311Z,100784.95
2022-10-04T09:03:08.998Z,100784.94
2022-10-04T09:04:10.789Z,100795.41
2022-10-04T09:05:12.646Z,100801.54
2022-10-04T09:06:15.877Z,100790.15
2022-10-04T09:07:17.845Z,100795.38
2022-10-04T09:08:19.695Z,100798.89
2022-10-04T09:09:24.716Z,100791.02
2022-10-04T09:10:26.518Z,100798.87
2022-10-04T09:11:28.403Z,100801.48
2022-10-04T09:12:30.244Z,100804.09
2022-10-04T09:13:34.407Z,100801.47
2022-10-04T09:14:36.284Z,100801.45
2022-10-04T09:15:42.227Z,100811.92
2022-10-04T09:16:45.623Z,100807.55
2022-10-04T09:17:47.761Z,100812.78
2022-10-04T09:18:49.626Z,100807.52
2022-10-04T09:19:52.574Z,100805.78
2022-10-04T09:20:56.227Z,100811.88
2022-10-04T09:21:58.115Z,100812.72
2022-10-04T09:23:06.284Z,100813.59
2022-10-04T09:24:08.186Z,100815.31
2022-10-04T09:25:10.017Z,100813.58
2022-10-04T09:26:11.969Z,100814.45
2022-10-04T09:27:17.347Z,100810.08
2022-10-04T09:28:17.621Z,100812.70
2022-10-04T09:29:19.539Z,100820.58
2022-10-04T09:30:21.405Z,100811.88
2022-10-04T09:31:23.349Z,100816.25
2022-10-04T09:32:25.359Z,100816.25
2022-10-04T09:33:27.185Z,100816.25
2022-10-04T09:34:30.800Z,100823.21
2022-10-04T09:35:32.713Z,100836.30
2022-10-04T09:36:34.649Z,100834.58
2022-10-04T09:37:36.528Z,100836.31
2022-10-04T09:38:38.337Z,100833.70
2022-10-04T09:39:40.165Z,100837.22
2022-10-04T09:40:46.511Z,100831.98
2022-10-04T09:41:45.983Z,100837.22
2022-10-04T09:42:48.267Z,100838.94
2022-10-04T09:43:50.110Z,100839.83
2022-10-04T09:44:51.959Z,100837.20
2022-10-04T09:45:56.161Z,100834.59
2022-10-04T09:46:58.335Z,100851.17
2022-10-04T09:48:00.171Z,100840.70
2022-10-04T09:49:02.002Z,100843.33
2022-10-04T09:50:04.246Z,100838.08
2022-10-04T09:51:06.096Z,100847.72
2022-10-04T09:52:07.937Z,100847.72
2022-10-04T09:53:10.022Z,100842.47
2022-10-04T09:54:11.851Z,100845.96
2022-10-04T09:56:34.908Z,100845.96
2022-10-04T09:57:36.751Z,100849.44
2022-10-04T09:58:38.631Z,100846.83
2022-10-04T09:59:40.490Z,100850.36
2022-10-04T10:00:42.668Z,100850.36
2022-10-04T10:01:44.615Z,100848.59
2022-10-04T10:02:47.284Z,100858.20
2022-10-04T10:03:49.284Z,100854.69
2022-10-04T10:04:51.178Z,100854.70
2022-10-04T10:05:53.002Z,100857.30
2022-10-04T10:06:55.239Z,100852.95
2022-10-04T10:07:57.094Z,100853.83
2022-10-04T10:08:58.944Z,100852.05
2022-10-04T10:10:00.770Z,100854.67
2022-10-04T10:11:02.625Z,100857.30
2022-10-04T10:12:04.462Z,100849.42
2022-10-04T10:13:06.289Z,100850.31
2022-10-04T10:14:08.149Z,100846.80
2022-10-04T10:15:09.992Z,100844.18
2022-10-04T10:16:12.106Z,100843.31
2022-10-04T10:17:13.942Z,100849.40
2022-10-04T10:18:15.792Z,100848.55
2022-10-04T10:19:17.639Z,100847.66
2022-10-04T10:20:19.641Z,100850.27
2022-10-04T10:21:21.742Z,100851.98
2022-10-04T10:22:23.544Z,100853.73
2022-10-04T10:23:25.348Z,100858.11
2022-10-04T10:24:27.199Z,100855.50
2022-10-04T10:25:29.004Z,100853.75
2022-10-04T10:26:30.825Z,100851.12
2022-10-04T10:27:32.610Z,100849.34
2022-10-04T10:28:34.455Z,100852.86
2022-10-04T10:29:36.374Z,100856.34
2022-10-04T10:30:38.294Z,100860.72
2022-10-04T10:31:41.284Z,100858.09
2022-10-04T10:32:43.626Z,100859.86
2022-10-04T10:33:45.598Z,100865.95
2022-10-04T10:34:47.451Z,100863.33
2022-10-04T10:35:49.260Z,100869.42
2022-10-04T10:36:51.062Z,100861.55
2022-10-04T10:37:52.857Z,100872.93
2022-10-04T10:38:54.674Z,100872.02
2022-10-04T10:39:56.518Z,100866.78
2022-10-04T10:40:58.299Z,100871.16
2022-10-04T10:42:01.214Z,100868.53
2022-10-04T10:49:12.349Z,100863.35
2022-10-04T10:50:14.586Z,100869.48
2022-10-04T10:51:16.414Z,100872.13
2022-10-04T10:52:18.258Z,100870.39
2022-10-04T10:53:20.038Z,100873.02
2022-10-04T10:54:22.750Z,100864.29
2022-10-04T10:55:24.580Z,100877.37
2022-10-04T10:56:30.082Z,100870.36
2022-10-04T10:57:30.022Z,100869.48
2022-10-04T10:58:31.825Z,100864.25
2022-10-04T10:59:33.667Z,100873.88
2022-10-04T11:00:35.683Z,100878.22
2022-10-04T11:01:37.629Z,100879.11
2022-10-04T11:02:49.244Z,100879.95
2022-10-04T11:03:43.398Z,100879.07
2022-10-04T11:04:45.356Z,100880.83
2022-10-04T11:05:47.289Z,100879.91
2022-10-04T11:06:49.197Z,100888.67
2022-10-04T11:07:50.987Z,100887.78
2022-10-04T11:08:52.806Z,100884.28
2022-10-04T11:09:54.657Z,100892.14
2022-10-04T11:10:56.517Z,100886.91
2022-10-04T11:11:58.410Z,100886.91
2022-10-04T11:13:01.314Z,100884.27
2022-10-04T11:14:03.158Z,100890.38
2022-10-04T11:15:05.009Z,100892.14
2022-10-04T11:16:06.863Z,100888.66
2022-10-04T11:17:09.199Z,100889.52
2022-10-04T11:18:11.040Z,100887.75
2022-10-04T11:19:12.905Z,100893.89
2022-10-04T11:20:15.069Z,100897.38
2022-10-04T11:21:16.894Z,100893.90
2022-10-04T11:22:18.697Z,100899.98
2022-10-04T11:23:20.499Z,100899.13
2022-10-04T11:24:22.327Z,100899.99
2022-10-04T11:25:24.197Z,100906.98
2022-10-04T11:26:26.085Z,100902.61
2022-10-04T11:27:27.902Z,100910.45
2022-10-04T11:28:29.813Z,100898.22
2022-10-04T11:29:31.719Z,100899.10
2022-10-04T11:30:33.836Z,100910.45
2022-10-04T11:31:35.661Z,100906.08
2022-10-04T11:32:37.429Z,100909.59
2022-10-04T11:33:39.252Z,100909.59
2022-10-04T11:34:41.069Z,100909.59
2022-10-04T11:35:42.913Z,100910.45
2022-10-04T11:36:45.182Z,100912.21
2022-10-04T11:37:47.219Z,100915.70
2022-10-04T11:38:49.043Z,100918.34
2022-10-04T11:39:50.842Z,100913.96
2022-10-04T11:40:52.789Z,100914.85
2022-10-04T11:41:54.598Z,100918.34
2022-10-04T11:42:56.440Z,100913.09
2022-10-04T11:43:58.266Z,100912.23
2022-10-04T11:45:00.073Z,100918.34
2022-10-04T11:46:01.908Z,100914.86
2022-10-04T11:47:03.819Z,100920.11
2022-10-04T11:48:05.624Z,100916.59
2022-10-04T11:49:07.426Z,100917.49
2022-10-04T11:50:10.564Z,100926.23
2022-10-04T11:51:12.434Z,100926.23
2022-10-04T11:52:14.321Z,100924.48
2022-10-04T11:53:16.170Z,100922.75
2022-10-04T11:54:18.006Z,100926.25